Time;durP1;ratioP1;P1;durP2;ratioP2;P2;SDS_P1;SDS_P2;PMS_P1;PMS_P2;Temp;Humidity;BMP_temperature;BMP_pressure;BME280_temperature;BME280_humidity;BME280_pressure;Samples;Min_cycle;Max_cycle;Signal;HPM_P1;HPM_P2
2022/04/05 00:00:14;;;;;;;3.17;2.97;;;6.30;99.90;;;;;;5072541;28;20283;-83
2022/04/05 00:02:42;;;;;;;4.32;3.95;;;6.30;99.90;;;;;;5073122;28;20271;-82
2022/04/05 00:05:12;;;;;;;6.32;4.45;;;6.20;99.90;;;;;;5072579;28;20229;-81
2022/04/05 00:07:40;;;;;;;4.30;3.90;;;6.20;99.90;;;;;;5073110;28;20197;-83
2022/04/05 00:10:09;;;;;;;5.25;4.75;;;6.10;99.90;;;;;;5073261;28;20205;-82
2022/04/05 00:12:37;;;;;;;5.13;4.70;;;6.00;99.90;;;;;;5072665;28;20231;-82
2022/04/05 00:15:06;;;;;;;4.93;4.43;;;6.00;99.90;;;;;;5073190;28;20207;-82
2022/04/05 00:17:34;;;;;;;5.82;4.95;;;6.00;99.90;;;;;;5072751;28;20193;-82
2022/04/05 00:20:03;;;;;;;4.20;3.85;;;6.00;99.90;;;;;;5072954;28;20229;-83
2022/04/05 00:22:33;;;;;;;5.05;4.63;;;6.00;99.90;;;;;;5072839;28;20256;-82
2022/04/05 00:25:02;;;;;;;4.55;4.15;;;6.00;99.90;;;;;;5072716;28;20311;-82
2022/04/05 00:27:31;;;;;;;8.52;4.50;;;6.10;99.90;;;;;;5069824;28;20292;-82
2022/04/05 00:29:59;;;;;;;5.15;4.65;;;6.10;99.90;;;;;;5075348;28;20233;-82
2022/04/05 00:32:28;;;;;;;5.47;4.82;;;6.10;99.90;;;;;;5076768;28;20221;-83
2022/04/05 00:34:56;;;;;;;5.63;4.70;;;6.00;99.90;;;;;;5076736;28;20236;-82
2022/04/05 00:37:24;;;;;;;3.50;3.25;;;6.00;99.90;;;;;;5077177;28;20220;-83
2022/04/05 00:39:54;;;;;;;5.43;4.93;;;5.90;99.90;;;;;;5076446;28;20283;-83
2022/04/05 00:42:22;;;;;;;4.28;3.97;;;5.80;99.90;;;;;;5076467;28;20304;-83
2022/04/05 00:44:51;;;;;;;4.07;3.67;;;5.70;99.90;;;;;;5076451;28;20213;-83
2022/04/05 00:47:23;;;;;;;7.00;5.32;;;5.60;99.90;;;;;;5076554;28;20307;-84
2022/04/05 00:49:52;;;;;;;5.18;4.70;;;5.50;99.90;;;;;;5076678;28;20197;-83
2022/04/05 00:52:23;;;;;;;6.70;4.57;;;5.50;99.90;;;;;;5076300;28;20389;-84
2022/04/05 00:54:55;;;;;;;5.18;4.70;;;5.50;99.90;;;;;;5076139;28;20209;-83
2022/04/05 00:57:24;;;;;;;5.30;4.90;;;5.40;99.90;;;;;;5076460;28;20232;-84
2022/04/05 00:59:55;;;;;;;5.47;4.63;;;5.40;99.90;;;;;;5076224;28;20208;-84
2022/04/05 01:02:27;;;;;;;4.70;4.30;;;5.40;99.90;;;;;;5076231;28;20221;-84
2022/04/05 01:04:56;;;;;;;4.72;4.07;;;5.40;99.90;;;;;;5076604;28;20205;-83
2022/04/05 01:07:30;;;;;;;6.75;5.20;;;5.30;99.90;;;;;;5076078;28;20197;-83
2022/04/05 01:10:02;;;;;;;3.60;3.30;;;5.40;99.90;;;;;;5076522;28;20212;-82
2022/04/05 01:12:32;;;;;;;10.15;5.18;;;5.30;99.90;;;;;;5075733;28;20217;-84
2022/04/05 01:15:02;;;;;;;4.75;4.35;;;5.20;99.90;;;;;;5076289;28;20204;-82
2022/04/05 01:17:33;;;;;;;4.60;4.20;;;5.30;99.90;;;;;;5076248;28;20322;-82
2022/04/05 01:20:02;;;;;;;5.22;4.75;;;5.20;99.90;;;;;;5076270;28;20203;-83
2022/04/05 01:22:33;;;;;;;5.13;4.40;;;5.20;99.90;;;;;;5075802;28;20228;-82
2022/04/05 01:25:13;;;;;;;5.65;5.15;;;5.10;99.90;;;;;;5075954;28;20299;-83
2022/04/05 01:27:53;;;;;;;5.97;5.40;;;5.10;99.90;;;;;;5075504;28;20201;-84
2022/04/05 01:30:26;;;;;;;6.18;5.32;;;5.00;99.90;;;;;;5075110;28;20196;-83
2022/04/05 01:32:59;;;;;;;5.43;4.90;;;5.00;99.90;;;;;;5075618;28;20217;-82
2022/04/05 01:35:30;;;;;;;5.25;4.75;;;5.00;99.90;;;;;;5075521;28;20189;-82
2022/04/05 01:37:59;;;;;;;5.82;5.15;;;5.00;99.90;;;;;;5076092;28;20209;-81
2022/04/05 01:40:35;;;;;;;4.78;4.40;;;4.90;99.90;;;;;;5074935;28;20194;-80
2022/04/05 01:43:04;;;;;;;5.43;4.95;;;4.90;99.90;;;;;;5075950;28;20224;-83
2022/04/05 01:45:34;;;;;;;5.80;5.10;;;4.90;99.90;;;;;;5075811;28;20243;-83
2022/04/05 01:48:05;;;;;;;4.40;4.10;;;4.90;99.90;;;;;;5075855;28;20197;-83
2022/04/05 01:50:35;;;;;;;5.70;4.90;;;5.00;99.90;;;;;;5074945;28;20194;-83
2022/04/05 01:53:07;;;;;;;5.88;5.38;;;5.00;99.90;;;;;;5075378;28;20221;-82
2022/04/05 01:55:38;;;;;;;5.95;5.25;;;5.00;99.90;;;;;;5075187;28;20200;-83
2022/04/05 01:58:06;;;;;;;5.28;4.75;;;5.10;99.90;;;;;;5075724;28;20212;-83
2022/04/05 02:00:35;;;;;;;4.63;3.95;;;5.20;99.90;;;;;;5075256;28;20194;-85
2022/04/05 02:03:03;;;;;;;4.85;4.45;;;5.20;99.90;;;;;;5074829;28;20221;-82
2022/04/05 02:05:32;;;;;;;4.18;3.78;;;5.20;99.90;;;;;;5074856;28;20224;-83
2022/04/05 02:08:03;;;;;;;8.75;5.68;;;5.20;99.90;;;;;;5075211;28;20228;-83
2022/04/05 02:10:33;;;;;;;4.72;4.32;;;5.30;99.90;;;;;;5075126;28;20197;-85
2022/04/05 02:13:03;;;;;;;4.13;3.75;;;5.40;99.90;;;;;;5074892;28;20244;-84
2022/04/05 02:15:33;;;;;;;5.28;4.82;;;5.40;99.90;;;;;;5075571;28;20226;-85
2022/04/05 02:18:02;;;;;;;3.45;3.25;;;5.50;99.90;;;;;;5075068;28;20201;-82
2022/04/05 02:20:31;;;;;;;4.45;4.05;;;5.50;99.90;;;;;;5074992;28;20209;-83
2022/04/05 02:22:59;;;;;;;4.00;3.60;;;5.50;99.90;;;;;;5074404;28;20217;-83
2022/04/05 02:25:30;;;;;;;5.57;4.38;;;5.60;99.90;;;;;;5074755;28;20216;-82
2022/04/05 02:27:59;;;;;;;6.47;4.90;;;5.70;99.90;;;;;;5071955;28;20297;-83
2022/04/05 02:30:29;;;;;;;4.90;4.50;;;5.60;99.90;;;;;;5074926;28;20212;-82
2022/04/05 02:32:58;;;;;;;5.32;4.60;;;5.70;99.90;;;;;;5054692;28;20226;-81
2022/04/05 02:35:26;;;;;;;5.15;4.65;;;5.80;99.90;;;;;;5055894;28;20358;-84
2022/04/05 02:37:55;;;;;;;4.05;3.75;;;5.80;99.90;;;;;;5074800;28;20193;-84
2022/04/05 02:40:23;;;;;;;3.60;3.30;;;5.80;99.90;;;;;;5074131;28;20193;-82
2022/04/05 02:42:52;;;;;;;4.38;3.95;;;5.80;99.90;;;;;;5074356;28;20255;-82
2022/04/05 02:45:20;;;;;;;3.72;3.42;;;5.80;99.90;;;;;;5073915;28;20233;-83
2022/04/05 02:47:50;;;;;;;11.13;3.72;;;5.80;99.90;;;;;;5073984;28;20316;-82
2022/04/05 02:50:19;;;;;;;4.72;3.55;;;5.80;99.90;;;;;;5073654;28;20197;-82
2022/04/05 02:52:48;;;;;;;4.70;4.20;;;5.80;99.90;;;;;;5073396;28;20237;-82
2022/04/05 02:55:17;;;;;;;3.55;3.25;;;5.90;99.90;;;;;;5074074;28;20201;-84
2022/04/05 02:57:47;;;;;;;4.25;3.88;;;5.90;99.90;;;;;;5073744;28;20269;-82
2022/04/05 03:00:17;;;;;;;3.83;3.53;;;6.00;99.90;;;;;;5073575;28;20256;-83
2022/04/05 03:02:46;;;;;;;3.60;3.30;;;6.00;99.90;;;;;;5074218;28;20229;-83
2022/04/05 03:05:18;;;;;;;14.43;3.45;;;6.10;99.90;;;;;;5073624;28;20225;-83
2022/04/05 03:07:46;;;;;;;6.00;2.97;;;6.10;99.90;;;;;;5074140;28;20209;-82
2022/04/05 03:10:15;;;;;;;3.78;3.40;;;6.10;99.90;;;;;;5073880;28;20205;-83
2022/04/05 03:12:43;;;;;;;3.83;3.53;;;6.10;99.90;;;;;;5073880;28;20272;-83
2022/04/05 03:15:12;;;;;;;3.67;2.83;;;6.10;99.90;;;;;;5073777;28;20257;-83
2022/04/05 03:17:44;;;;;;;2.83;2.63;;;6.10;99.90;;;;;;5073767;28;20288;-82
2022/04/05 03:20:14;;;;;;;3.80;3.50;;;6.20;99.90;;;;;;5073523;28;20229;-83
2022/04/05 03:22:44;;;;;;;4.22;3.83;;;6.20;99.90;;;;;;5072959;28;20221;-83
2022/04/05 03:25:13;;;;;;;4.82;4.25;;;6.20;99.90;;;;;;5073212;28;20240;-83
2022/04/05 03:27:42;;;;;;;3.30;3.00;;;6.20;99.90;;;;;;5073199;28;20300;-83
2022/04/05 03:30:16;;;;;;;3.95;3.65;;;6.20;99.90;;;;;;5074051;28;20284;-82
2022/04/05 03:32:45;;;;;;;4.15;3.75;;;6.20;99.90;;;;;;5073387;28;20299;-84
2022/04/05 03:35:14;;;;;;;4.25;3.90;;;6.20;99.90;;;;;;5074739;28;20255;-83
2022/04/05 03:37:44;;;;;;;6.25;4.13;;;6.20;99.90;;;;;;5073024;28;20369;-84
2022/04/05 03:40:13;;;;;;;4.72;3.53;;;6.30;99.90;;;;;;5073103;28;20235;-82
2022/04/05 03:42:42;;;;;;;3.13;2.92;;;6.30;99.90;;;;;;5073097;28;20221;-82
2022/04/05 03:45:10;;;;;;;2.53;2.38;;;6.30;99.90;;;;;;5073395;28;20213;-82
2022/04/05 03:47:39;;;;;;;2.95;2.13;;;6.40;99.90;;;;;;5072860;28;20213;-83
2022/04/05 03:50:08;;;;;;;3.40;3.10;;;6.40;99.90;;;;;;5073061;28;20209;-83
2022/04/05 03:52:36;;;;;;;7.07;4.13;;;6.40;99.90;;;;;;5072291;28;20271;-82
2022/04/05 03:55:07;;;;;;;3.30;3.00;;;6.40;99.90;;;;;;5074409;28;20291;-82
2022/04/05 03:57:36;;;;;;;3.95;3.55;;;6.50;99.90;;;;;;5053457;28;20281;-83
2022/04/05 04:00:05;;;;;;;2.58;2.38;;;6.60;99.90;;;;;;5058519;28;20284;-82
2022/04/05 04:02:35;;;;;;;4.00;2.72;;;6.60;99.90;;;;;;5072891;28;20248;-82
2022/04/05 04:05:04;;;;;;;3.92;3.55;;;6.60;99.90;;;;;;5072527;28;20295;-83
2022/04/05 04:07:32;;;;;;;3.28;3.05;;;6.60;99.90;;;;;;5072677;28;20216;-83
2022/04/05 04:10:04;;;;;;;4.03;3.38;;;6.60;99.90;;;;;;5073276;28;20239;-83
2022/04/05 04:12:34;;;;;;;3.10;2.90;;;6.70;99.90;;;;;;5072847;28;20292;-82
2022/04/05 04:15:02;;;;;;;2.85;2.65;;;6.70;99.90;;;;;;5073274;28;20288;-78
2022/04/05 04:17:30;;;;;;;3.58;3.28;;;6.70;99.90;;;;;;5073052;28;20259;-78
2022/04/05 04:20:01;;;;;;;3.67;3.38;;;6.70;99.90;;;;;;5072845;28;20204;-78
2022/04/05 04:22:29;;;;;;;2.85;2.65;;;6.70;99.90;;;;;;5072515;28;20252;-77
2022/04/05 04:24:57;;;;;;;3.40;2.83;;;6.80;99.90;;;;;;5072733;28;20209;-78
2022/04/05 04:27:26;;;;;;;3.20;2.90;;;6.80;99.90;;;;;;5073022;28;20231;-77
2022/04/05 04:29:59;;;;;;;2.80;2.60;;;6.80;99.90;;;;;;5072847;28;20251;-77
2022/04/05 04:32:30;;;;;;;2.58;2.38;;;6.80;99.90;;;;;;5072858;28;20216;-77
2022/04/05 04:34:59;;;;;;;2.65;2.45;;;6.80;99.90;;;;;;5072555;28;20225;-77
2022/04/05 04:37:27;;;;;;;2.88;2.67;;;6.80;99.90;;;;;;5073082;28;20209;-77
2022/04/05 04:39:56;;;;;;;3.75;2.65;;;6.80;99.90;;;;;;5072765;28;20201;-77
2022/04/05 04:42:29;;;;;;;5.03;3.55;;;6.90;99.90;;;;;;5072670;28;20223;-78
2022/04/05 04:44:59;;;;;;;3.00;2.75;;;6.90;99.90;;;;;;5072335;28;20216;-78
2022/04/05 04:47:27;;;;;;;3.10;2.85;;;6.90;99.90;;;;;;5072269;28;20221;-78
2022/04/05 04:49:56;;;;;;;3.28;2.97;;;6.90;99.90;;;;;;5053926;28;20219;-77
2022/04/05 04:52:27;;;;;;;2.92;2.72;;;6.90;99.90;;;;;;5072332;28;20213;-77
2022/04/05 04:54:56;;;;;;;3.50;3.20;;;7.00;99.90;;;;;;5072281;28;20236;-77
2022/04/05 04:57:26;;;;;;;2.95;2.67;;;7.00;99.90;;;;;;5085615;28;20220;-77
2022/04/05 04:59:55;;;;;;;3.22;2.97;;;7.00;99.90;;;;;;5092695;28;20291;-77
2022/04/05 05:02:25;;;;;;;4.53;3.25;;;7.00;99.90;;;;;;5092514;28;20292;-78
2022/04/05 05:04:54;;;;;;;2.85;2.65;;;7.10;99.90;;;;;;5092890;28;20216;-77
2022/04/05 05:07:22;;;;;;;3.20;2.90;;;7.10;99.90;;;;;;5092772;28;20224;-77
2022/04/05 05:09:50;;;;;;;3.33;2.80;;;7.10;99.90;;;;;;5076898;28;20334;-83
2022/04/05 05:12:22;;;;;;;3.42;3.03;;;7.10;99.90;;;;;;5072075;28;20251;-84
2022/04/05 05:14:51;;;;;;;3.53;3.22;;;7.10;99.90;;;;;;5071006;28;20189;-77
2022/04/05 05:17:19;;;;;;;2.53;2.30;;;7.10;99.90;;;;;;5086193;28;20201;-77
2022/04/05 05:19:49;;;;;;;3.20;2.90;;;7.20;99.90;;;;;;5089886;28;20196;-77
2022/04/05 05:22:17;;;;;;;2.60;2.40;;;7.20;99.90;;;;;;5095771;28;20308;-77
2022/04/05 05:24:46;;;;;;;2.22;2.10;;;7.20;99.90;;;;;;5096105;28;20259;-77
2022/04/05 05:27:15;;;;;;;3.60;2.60;;;7.20;99.90;;;;;;5095822;28;20279;-77
2022/04/05 05:29:43;;;;;;;2.10;2.00;;;7.20;99.90;;;;;;5079874;28;20201;-80
2022/04/05 05:32:11;;;;;;;2.35;2.15;;;7.30;99.90;;;;;;5075256;28;20292;-79
2022/04/05 05:34:40;;;;;;;4.22;3.13;;;7.20;99.90;;;;;;5075503;28;20228;-81
2022/04/05 05:37:14;;;;;;;4.07;3.28;;;7.20;99.90;;;;;;5075724;28;20251;-81
2022/04/05 05:39:43;;;;;;;3.00;2.70;;;7.20;99.90;;;;;;5080572;28;20288;-81
2022/04/05 05:42:11;;;;;;;2.60;2.45;;;7.30;99.90;;;;;;5075239;28;20225;-81
2022/04/05 05:44:39;;;;;;;2.70;2.50;;;7.30;99.90;;;;;;5075498;28;20296;-81
2022/04/05 05:47:09;;;;;;;3.78;3.42;;;7.30;99.90;;;;;;5075316;28;20289;-81
2022/04/05 05:49:38;;;;;;;3.20;2.97;;;7.30;99.90;;;;;;5075352;28;20217;-81
2022/04/05 05:52:07;;;;;;;2.97;2.72;;;7.30;99.90;;;;;;5075444;28;20235;-83
2022/04/05 05:54:39;;;;;;;3.33;3.03;;;7.40;99.90;;;;;;5074814;28;20267;-81
2022/04/05 05:57:08;;;;;;;3.08;2.88;;;7.40;99.90;;;;;;5075506;28;20228;-81
2022/04/05 05:59:36;;;;;;;3.70;3.40;;;7.40;99.90;;;;;;5074979;28;20228;-79
2022/04/05 06:02:05;;;;;;;3.03;2.78;;;7.40;99.90;;;;;;5075077;28;20213;-79
2022/04/05 06:04:33;;;;;;;3.03;2.80;;;7.40;99.90;;;;;;5075211;28;20312;-79
2022/04/05 06:07:07;;;;;;;10.75;3.15;;;7.40;99.90;;;;;;5075123;28;20236;-80
2022/04/05 06:09:35;;;;;;;3.05;2.85;;;7.30;99.90;;;;;;5075178;28;20209;-87
2022/04/05 06:12:06;;;;;;;3.20;3.00;;;7.30;99.90;;;;;;5075116;28;20221;-87
2022/04/05 06:14:34;;;;;;;3.70;3.40;;;7.20;99.90;;;;;;5075272;28;20204;-87
2022/04/05 06:17:03;;;;;;;2.88;2.67;;;7.10;99.90;;;;;;5075722;28;20201;-87
2022/04/05 06:19:31;;;;;;;4.28;3.88;;;7.10;99.90;;;;;;5076720;28;20221;-84
2022/04/05 06:22:00;;;;;;;4.05;3.63;;;7.00;99.90;;;;;;5076787;28;20252;-86
2022/04/05 06:24:28;;;;;;;3.80;3.50;;;7.00;99.90;;;;;;5078758;28;20243;-87
2022/04/05 06:26:56;;;;;;;3.25;2.95;;;6.90;99.90;;;;;;5074711;28;20264;-86
2022/04/05 06:29:26;;;;;;;3.78;3.45;;;6.90;99.90;;;;;;5077421;28;20209;-87
2022/04/05 06:31:55;;;;;;;3.45;3.20;;;6.90;99.90;;;;;;5077167;28;20278;-85
2022/04/05 06:34:25;;;;;;;3.95;3.63;;;6.90;99.90;;;;;;5076287;28;20201;-88
2022/04/05 06:36:54;;;;;;;3.92;3.58;;;7.00;99.90;;;;;;5075151;28;20231;-87
2022/04/05 06:39:22;;;;;;;4.90;3.33;;;7.00;99.90;;;;;;5074496;28;20283;-87
2022/04/05 06:41:51;;;;;;;6.43;3.55;;;7.00;99.90;;;;;;5073428;28;20240;-87
2022/04/05 06:44:19;;;;;;;3.22;2.95;;;7.00;99.90;;;;;;5073552;28;20197;-87
2022/04/05 06:46:49;;;;;;;4.03;3.72;;;7.00;99.90;;;;;;5077902;28;20220;-87
2022/04/05 06:49:17;;;;;;;2.75;2.55;;;7.00;99.90;;;;;;5094567;28;20293;-87
2022/04/05 06:51:46;;;;;;;3.30;3.10;;;7.00;99.90;;;;;;5094442;28;20277;-87
2022/04/05 06:54:14;;;;;;;4.65;3.47;;;7.10;99.90;;;;;;5094574;28;20254;-87
2022/04/05 06:56:42;;;;;;;3.30;3.00;;;7.00;99.90;;;;;;5084597;28;20237;-87
2022/04/05 06:59:11;;;;;;;3.50;3.22;;;7.10;99.90;;;;;;5084516;28;20189;-85
2022/04/05 07:01:39;;;;;;;3.42;3.13;;;7.10;99.90;;;;;;5077939;28;20311;-85
2022/04/05 07:04:09;;;;;;;3.47;3.17;;;7.10;99.90;;;;;;5074146;28;20197;-85
2022/04/05 07:06:46;;;;;;;5.50;3.85;;;7.10;99.90;;;;;;5074091;28;20193;-85
2022/04/05 07:09:15;;;;;;;4.32;3.33;;;7.00;99.90;;;;;;5073779;28;20209;-86
2022/04/05 07:11:43;;;;;;;3.22;3.03;;;7.00;99.90;;;;;;5073549;28;20213;-86
2022/04/05 07:14:12;;;;;;;3.58;3.28;;;6.90;99.90;;;;;;5074216;28;20303;-86
2022/04/05 07:16:40;;;;;;;3.60;3.30;;;6.90;99.90;;;;;;5073690;28;20197;-86
2022/04/05 07:19:10;;;;;;;4.07;3.67;;;6.90;99.90;;;;;;5074130;28;20224;-88
2022/04/05 07:21:39;;;;;;;3.15;2.88;;;7.00;99.90;;;;;;5073485;28;20213;-87
2022/04/05 07:24:07;;;;;;;4.55;3.85;;;7.00;99.90;;;;;;5073418;28;20221;-87
2022/04/05 07:26:36;;;;;;;4.80;3.78;;;7.00;99.90;;;;;;5073709;28;20197;-88
2022/04/05 07:29:05;;;;;;;6.60;3.53;;;7.00;99.90;;;;;;5073938;28;20300;-88
2022/04/05 07:31:33;;;;;;;6.45;3.47;;;6.90;99.90;;;;;;5073385;28;20201;-87
2022/04/05 07:34:03;;;;;;;3.33;3.13;;;6.90;99.90;;;;;;5073670;28;20200;-87
2022/04/05 07:36:33;;;;;;;3.22;2.92;;;6.90;99.90;;;;;;5078346;28;20197;-87
2022/04/05 07:39:02;;;;;;;4.15;3.75;;;6.90;99.90;;;;;;5074026;28;20247;-87
2022/04/05 07:41:31;;;;;;;3.17;2.97;;;6.80;99.90;;;;;;5073112;28;20209;-88
2022/04/05 07:43:59;;;;;;;4.75;3.88;;;6.80;99.90;;;;;;5073977;28;20197;-88
2022/04/05 07:46:28;;;;;;;3.40;3.10;;;6.80;99.90;;;;;;5073443;28;20235;-87
2022/04/05 07:48:57;;;;;;;3.65;3.35;;;6.70;99.90;;;;;;5073390;28;20217;-86
2022/04/05 07:51:28;;;;;;;3.47;3.17;;;6.60;99.90;;;;;;5073217;28;20205;-85
2022/04/05 07:54:27;;;;;;;3.42;3.13;;;6.60;99.90;;;;;;5073786;28;20201;-86
2022/04/05 07:57:00;;;;;;;4.28;3.88;;;6.60;99.90;;;;;;5078002;28;20203;-87
2022/04/05 07:59:29;;;;;;;3.03;2.83;;;6.50;99.90;;;;;;5073622;28;20209;-88
2022/04/05 08:01:58;;;;;;;3.83;3.50;;;6.50;99.90;;;;;;5072694;28;20280;-87
2022/04/05 08:04:49;;;;;;;3.20;2.90;;;6.50;99.90;;;;;;5073483;28;20194;-87
2022/04/05 08:07:17;;;;;;;2.75;2.55;;;6.50;99.90;;;;;;5072431;28;20193;-87
2022/04/05 08:09:47;;;;;;;4.68;4.22;;;6.60;99.90;;;;;;5073158;28;20308;-87
2022/04/05 08:12:16;;;;;;;3.45;3.15;;;6.60;99.90;;;;;;5072914;28;20295;-87
2022/04/05 08:14:44;;;;;;;3.97;3.67;;;6.60;99.90;;;;;;5073032;28;20197;-88
2022/04/05 08:17:13;;;;;;;2.65;2.45;;;6.70;99.90;;;;;;5072998;28;20228;-87
2022/04/05 08:19:41;;;;;;;3.40;3.10;;;6.80;99.90;;;;;;5072940;28;20205;-86
2022/04/05 08:22:09;;;;;;;7.00;3.55;;;6.80;99.90;;;;;;5072832;28;20244;-87
2022/04/05 08:24:38;;;;;;;2.40;2.28;;;6.90;99.90;;;;;;5073217;28;20311;-87
2022/04/05 08:27:08;;;;;;;5.03;3.80;;;7.00;99.90;;;;;;5072894;28;20293;-87
2022/04/05 08:29:40;;;;;;;3.70;3.38;;;7.00;99.90;;;;;;5072730;28;20229;-87
2022/04/05 08:32:09;;;;;;;3.22;2.92;;;7.10;99.90;;;;;;5072044;28;20224;-87
2022/04/05 08:34:41;;;;;;;2.53;2.33;;;7.20;99.90;;;;;;5052266;28;20293;-87
2022/04/05 08:37:10;;;;;;;2.80;2.60;;;7.30;99.90;;;;;;5053033;28;20309;-86
2022/04/05 08:39:38;;;;;;;3.55;3.03;;;7.40;99.90;;;;;;5053361;28;20206;-87
2022/04/05 08:42:09;;;;;;;2.78;2.58;;;7.50;99.90;;;;;;5052694;28;20241;-87
2022/04/05 08:44:39;;;;;;;2.63;2.42;;;7.60;99.90;;;;;;5077117;28;20196;-85
2022/04/05 08:47:09;;;;;;;3.63;2.85;;;7.70;99.90;;;;;;5077511;28;20227;-83
2022/04/05 08:49:39;;;;;;;2.20;2.10;;;7.80;99.90;;;;;;5072147;28;20305;-85
2022/04/05 08:52:08;;;;;;;3.38;3.08;;;7.90;99.90;;;;;;5075322;28;20255;-84
2022/04/05 08:54:37;;;;;;;2.20;2.10;;;7.90;99.90;;;;;;5076305;28;20292;-82
2022/04/05 08:57:06;;;;;;;2.60;2.40;;;8.00;99.90;;;;;;5076651;28;20204;-83
2022/04/05 08:59:36;;;;;;;2.50;2.30;;;8.00;99.90;;;;;;5076138;28;20189;-82
2022/04/05 09:03:00;;;;;;;2.42;2.22;;;8.00;99.90;;;;;;5076464;28;20213;-82
2022/04/05 09:06:06;;;;;;;2.63;1.98;;;8.00;99.90;;;;;;5050817;28;20205;-82
2022/04/05 09:08:35;;;;;;;2.00;1.90;;;8.00;99.90;;;;;;5074747;28;20216;-79
2022/04/05 09:11:12;;;;;;;1.92;1.83;;;8.10;99.90;;;;;;5075790;28;20213;-81
2022/04/05 09:13:58;;;;;;;3.60;2.50;;;8.10;99.90;;;;;;5076469;28;20308;-87
2022/04/05 09:16:34;;;;;;;1.70;1.60;;;8.10;99.90;;;;;;5075668;28;20228;-86
2022/04/05 09:19:11;;;;;;;2.67;2.47;;;8.30;99.90;;;;;;5076298;28;20201;-86
2022/04/05 09:21:54;;;;;;;2.75;2.55;;;8.50;99.90;;;;;;5074600;28;20220;-83
2022/04/05 09:24:37;;;;;;;2.40;2.20;;;8.50;99.90;;;;;;5075804;28;20217;-84
2022/04/05 09:27:07;;;;;;;2.45;2.25;;;8.80;99.90;;;;;;5075879;28;20204;-87
2022/04/05 09:29:39;;;;;;;2.40;2.20;;;9.20;99.90;;;;;;5075529;28;20300;-87
2022/04/05 09:32:10;;;;;;;1.40;1.30;;;9.40;99.90;;;;;;5075875;28;20216;-83
2022/04/05 09:34:49;;;;;;;2.38;2.22;;;9.50;99.90;;;;;;5082500;28;20262;-83
2022/04/05 09:37:25;;;;;;;1.60;1.50;;;9.60;99.90;;;;;;5095971;28;20201;-79
2022/04/05 09:39:55;;;;;;;2.28;1.73;;;9.80;99.90;;;;;;5090553;28;20213;-85
2022/04/05 09:42:23;;;;;;;1.98;1.88;;;9.90;99.90;;;;;;5075229;28;20213;-82
2022/04/05 09:44:51;;;;;;;1.65;1.55;;;9.90;99.90;;;;;;5090016;28;20224;-83
2022/04/05 09:47:24;;;;;;;2.08;1.98;;;10.00;99.90;;;;;;5094003;28;20228;-83
2022/04/05 09:49:57;;;;;;;2.03;1.45;;;10.50;99.90;;;;;;5074855;28;20228;-82
2022/04/05 09:52:26;;;;;;;1.60;1.50;;;10.80;99.90;;;;;;5075204;28;20225;-82
2022/04/05 09:54:56;;;;;;;1.60;1.48;;;11.00;99.90;;;;;;5074748;28;20209;-83
2022/04/05 09:57:31;;;;;;;1.20;1.20;;;11.10;99.90;;;;;;5074775;28;20197;-83
2022/04/05 10:00:10;;;;;;;2.17;1.60;;;11.10;99.90;;;;;;5075483;28;20184;-83
2022/04/05 10:03:00;;;;;;;1.45;1.35;;;11.00;99.90;;;;;;5073826;28;20239;-83
2022/04/05 10:05:30;;;;;;;2.00;1.83;;;10.80;99.90;;;;;;5075256;28;20236;-83
2022/04/05 10:07:59;;;;;;;2.45;1.50;;;10.80;99.90;;;;;;5074802;28;20204;-84
2022/04/05 10:10:28;;;;;;;1.65;1.55;;;10.80;99.90;;;;;;5074634;28;20217;-83
2022/04/05 10:12:57;;;;;;;1.35;1.30;;;10.80;99.90;;;;;;5074553;28;20229;-82
2022/04/05 10:15:27;;;;;;;1.65;1.55;;;10.80;99.90;;;;;;5074981;28;20262;-83
2022/04/05 10:17:58;;;;;;;1.27;1.27;;;10.80;99.90;;;;;;5074787;28;20219;-83
2022/04/05 10:20:28;;;;;;;0.95;0.95;;;10.90;99.90;;;;;;5074349;28;20205;-85
2022/04/05 10:23:01;;;;;;;1.05;1.05;;;11.00;99.90;;;;;;5073932;28;20264;-85
2022/04/05 10:25:31;;;;;;;1.30;1.30;;;11.20;99.90;;;;;;5074209;28;20239;-88
2022/04/05 10:28:00;;;;;;;1.50;1.40;;;11.90;99.90;;;;;;5074778;28;20295;-88
2022/04/05 10:30:33;;;;;;;1.10;1.10;;;12.10;99.90;;;;;;5073668;28;20294;-87
2022/04/05 10:33:08;;;;;;;0.95;0.95;;;12.50;99.90;;;;;;5073945;28;20252;-88
2022/04/05 10:35:42;;;;;;;1.63;1.52;;;12.40;99.90;;;;;;5053680;28;20270;-86
2022/04/05 10:38:14;;;;;;;1.88;0.98;;;12.00;99.90;;;;;;5054069;28;20228;-87
2022/04/05 10:40:43;;;;;;;2.17;1.45;;;11.60;99.90;;;;;;5053386;28;20202;-86
2022/04/05 10:43:19;;;;;;;1.50;1.40;;;11.20;99.90;;;;;;5069476;28;20236;-86
2022/04/05 10:45:48;;;;;;;1.42;1.38;;;11.10;99.90;;;;;;5073858;28;20219;-88
2022/04/05 10:48:21;;;;;;;1.50;1.40;;;11.20;99.90;;;;;;5074650;28;20231;-89
2022/04/05 10:51:30;;;;;;;1.60;1.50;;;11.30;99.90;;;;;;5075110;28;20209;-87
2022/04/05 10:54:23;;;;;;;1.45;1.35;;;11.10;99.90;;;;;;5076508;28;20262;-87
2022/04/05 10:57:32;;;;;;;1.40;1.30;;;11.10;99.90;;;;;;5072848;28;20228;-83
2022/04/05 11:00:05;;;;;;;1.55;1.45;;;11.00;99.90;;;;;;5070815;28;20260;-87
2022/04/05 11:02:39;;;;;;;1.30;1.20;;;10.70;99.90;;;;;;5075677;28;20316;-88
2022/04/05 11:05:41;;;;;;;1.40;1.30;;;10.90;99.90;;;;;;5074188;28;20236;-88
2022/04/05 11:08:19;;;;;;;1.20;1.20;;;11.10;99.90;;;;;;5073831;28;20205;-87
2022/04/05 11:10:53;;;;;;;1.50;1.40;;;11.40;99.90;;;;;;5073993;28;20282;-85
2022/04/05 11:13:40;;;;;;;2.08;1.63;;;11.60;99.90;;;;;;5072029;28;20252;-85
2022/04/05 11:16:14;;;;;;;2.60;1.98;;;11.30;99.90;;;;;;5086602;28;20286;-86
2022/04/05 11:18:45;;;;;;;1.75;1.65;;;11.10;99.90;;;;;;5072922;28;20205;-85
2022/04/05 11:21:15;;;;;;;1.88;1.73;;;10.90;99.90;;;;;;5072920;28;20205;-85
2022/04/05 11:23:47;;;;;;;2.13;1.65;;;11.10;99.90;;;;;;5073127;28;20197;-85
2022/04/05 11:26:30;;;;;;;1.48;1.38;;;11.10;99.90;;;;;;5072198;28;20303;-85
2022/04/05 11:28:59;;;;;;;2.17;1.80;;;10.80;99.90;;;;;;5072715;28;20209;-85
2022/04/05 11:31:30;;;;;;;1.50;1.40;;;10.50;99.90;;;;;;5072601;28;20221;-85
2022/04/05 11:33:59;;;;;;;1.80;1.70;;;10.20;99.90;;;;;;5083881;28;20204;-84
2022/04/05 11:36:42;;;;;;;1.92;1.83;;;10.00;99.90;;;;;;5076616;28;20216;-85
2022/04/05 11:39:14;;;;;;;1.30;1.27;;;9.60;99.90;;;;;;5072411;28;20208;-86
2022/04/05 11:41:42;;;;;;;2.40;2.20;;;9.50;99.90;;;;;;5072528;28;20284;-86
2022/04/05 11:44:15;;;;;;;2.10;1.88;;;9.50;99.90;;;;;;5072451;28;20244;-85
2022/04/05 11:46:45;;;;;;;1.92;1.83;;;9.50;99.90;;;;;;5072361;28;20205;-87
2022/04/05 11:49:14;;;;;;;2.15;2.00;;;9.50;99.90;;;;;;5072833;28;20201;-86
2022/04/05 11:51:48;;;;;;;2.13;2.03;;;9.50;99.90;;;;;;5071752;28;20220;-87
2022/04/05 11:54:18;;;;;;;2.15;1.98;;;9.40;99.90;;;;;;5073613;28;20209;-85
2022/04/05 11:56:47;;;;;;;2.08;1.90;;;9.30;99.90;;;;;;5078258;28;20193;-87
2022/04/05 11:59:17;;;;;;;1.98;1.88;;;9.50;99.90;;;;;;5072802;28;20205;-86
2022/04/05 12:01:49;;;;;;;2.00;1.90;;;9.60;99.90;;;;;;5073383;28;20286;-87
2022/04/05 12:04:20;;;;;;;1.70;1.60;;;9.80;99.90;;;;;;5092733;28;20204;-86
2022/04/05 12:06:55;;;;;;;2.00;1.90;;;9.90;99.90;;;;;;5082960;28;20201;-86
2022/04/05 12:09:24;;;;;;;2.58;2.33;;;9.80;99.90;;;;;;5072035;28;20254;-85
2022/04/05 12:11:53;;;;;;;2.45;2.25;;;9.90;99.90;;;;;;5071712;28;20295;-85
2022/04/05 12:16:58;;;;;;;2.65;2.13;;;;;;;;;;5080072;27;1277880;-84
2022/04/05 12:19:29;;;;;;;1.92;1.83;;;;;;;;;;5109637;28;20253;-88
2022/04/05 12:22:00;;;;;;;2.53;2.33;;;10.10;99.90;;;;;;5104013;28;20311;-85
2022/04/05 12:24:33;;;;;;;1.58;1.50;;;10.00;99.90;;;;;;5089636;28;20288;-84
2022/04/05 12:27:05;;;;;;;1.67;1.50;;;10.10;99.90;;;;;;5089406;28;20279;-87
2022/04/05 12:29:41;;;;;;;4.15;2.30;;;10.10;99.90;;;;;;5089478;28;20270;-83
2022/04/05 12:32:13;;;;;;;1.80;1.70;;;10.10;99.90;;;;;;5089273;28;20228;-88
2022/04/05 12:34:43;;;;;;;2.33;2.13;;;10.20;99.90;;;;;;5089776;28;20201;-88
2022/04/05 12:37:14;;;;;;;1.77;1.67;;;10.10;99.90;;;;;;5089630;28;20200;-88
2022/04/05 12:39:45;;;;;;;1.85;1.75;;;10.10;99.90;;;;;;5089615;28;20291;-89
2022/04/05 12:42:13;;;;;;;2.63;2.30;;;9.90;99.90;;;;;;5089681;28;20274;-88
2022/04/05 12:44:44;;;;;;;2.38;2.17;;;10.00;99.90;;;;;;5089432;28;20232;-88
2022/04/05 12:47:23;;;;;;;1.90;1.70;;;10.00;99.90;;;;;;5089355;28;20212;-89
2022/04/05 12:49:54;;;;;;;1.52;1.42;;;9.90;99.90;;;;;;5089642;28;20208;-89
2022/04/05 12:52:24;;;;;;;1.98;1.88;;;9.80;99.90;;;;;;5089059;28;20221;-89
2022/04/05 12:54:58;;;;;;;1.30;1.30;;;9.60;99.90;;;;;;5089818;28;20228;-89
2022/04/05 12:57:33;;;;;;;1.38;1.27;;;9.70;99.90;;;;;;5089504;28;20200;-89
2022/04/05 13:00:14;;;;;;;3.30;2.25;;;9.50;99.90;;;;;;5089967;28;20198;-90
2022/04/05 13:03:03;;;;;;;2.63;2.42;;;9.60;99.90;;;;;;5089524;28;20217;-89
2022/04/05 13:08:41;;;;;;;2.55;2.33;;;10.00;99.90;;;;;;5089347;28;20219;-89
2022/04/05 13:11:25;;;;;;;1.83;1.73;;;10.30;99.90;;;;;;5088825;28;20208;-90
2022/04/05 13:14:05;;;;;;;2.08;1.85;;;9.90;99.90;;;;;;5089055;28;20215;-89
2022/04/05 13:16:34;;;;;;;2.50;2.30;;;9.60;99.90;;;;;;5089127;28;20207;-90
2022/04/05 13:19:15;;;;;;;2.90;2.65;;;9.70;99.90;;;;;;5089572;28;20239;-90
2022/04/05 13:21:46;;;;;;;2.65;2.45;;;9.90;99.90;;;;;;5088907;28;20311;-90